Gorredijk, Netherlands
Current Conditions -  °F | °C
As of 10:55 PM on Thursday 27 Nov 2014 (Local Time) from EHLW Reporting Station
Light Rain Light Rain  
Wind Chill: 31°   Ceiling: 4900
Heat Index: 39°   Visibility: 3mi
Dew Point: 37°   Wind: 14mph
Humidity: 93%   Direction: 110°ESE
Pressure: 29.77"   Gusts: NA
Location:  53.01°N, 6.06°E
Report Text: EHLW 272155Z AUTO 11012KT 5000 -RADZ OVC049 04/03 Q1008 WHT
Loading
Personal Weather Stations






























Interactive Weather Map New forecast layout! Learn more

10-Day Weather Forecast

Advertisements
Track Severe Weather on mobile